sensor_id;sensor_type;location;lat;lon;timestamp;P1;durP1;ratioP1;P2;durP2;ratioP2
22525;SDS011;11429;50.842;4.386;2024-01-15T00:02:12;34.45;;;18.10;;
22525;SDS011;11429;50.842;4.386;2024-01-15T00:04:38;39.78;;;18.95;;
22525;SDS011;11429;50.842;4.386;2024-01-15T00:07:08;36.15;;;17.45;;
22525;SDS011;11429;50.842;4.386;2024-01-15T00:09:34;35.65;;;16.58;;
22525;SDS011;11429;50.842;4.386;2024-01-15T00:12:00;33.65;;;18.08;;
22525;SDS011;11429;50.842;4.386;2024-01-15T00:14:26;34.13;;;17.23;;
22525;SDS011;11429;50.842;4.386;2024-01-15T00:16:52;32.47;;;17.30;;
22525;SDS011;11429;50.842;4.386;2024-01-15T00:19:20;32.10;;;16.08;;
22525;SDS011;11429;50.842;4.386;2024-01-15T00:21:49;30.33;;;16.00;;
22525;SDS011;11429;50.842;4.386;2024-01-15T00:24:15;31.77;;;16.83;;
22525;SDS011;11429;50.842;4.386;2024-01-15T00:26:41;28.83;;;14.95;;
22525;SDS011;11429;50.842;4.386;2024-01-15T00:29:07;28.33;;;14.60;;
22525;SDS011;11429;50.842;4.386;2024-01-15T00:31:33;29.27;;;15.38;;
22525;SDS011;11429;50.842;4.386;2024-01-15T00:33:59;27.80;;;14.43;;
22525;SDS011;11429;50.842;4.386;2024-01-15T00:36:24;29.65;;;14.10;;
22525;SDS011;11429;50.842;4.386;2024-01-15T00:38:50;28.55;;;14.73;;
22525;SDS011;11429;50.842;4.386;2024-01-15T00:41:16;25.70;;;14.02;;
22525;SDS011;11429;50.842;4.386;2024-01-15T00:43:43;29.85;;;13.77;;
22525;SDS011;11429;50.842;4.386;2024-01-15T00:46:10;26.33;;;13.70;;
22525;SDS011;11429;50.842;4.386;2024-01-15T00:48:36;26.70;;;13.68;;
22525;SDS011;11429;50.842;4.386;2024-01-15T00:51:02;25.05;;;13.52;;
22525;SDS011;11429;50.842;4.386;2024-01-15T00:53:29;26.25;;;14.30;;
22525;SDS011;11429;50.842;4.386;2024-01-15T00:55:54;25.70;;;13.25;;
22525;SDS011;11429;50.842;4.386;2024-01-15T00:58:20;28.92;;;13.52;;
22525;SDS011;11429;50.842;4.386;2024-01-15T01:00:46;21.98;;;12.40;;
22525;SDS011;11429;50.842;4.386;2024-01-15T01:03:11;19.52;;;11.57;;
22525;SDS011;11429;50.842;4.386;2024-01-15T01:05:37;23.40;;;11.25;;
22525;SDS011;11429;50.842;4.386;2024-01-15T01:08:03;21.35;;;10.88;;
22525;SDS011;11429;50.842;4.386;2024-01-15T01:10:29;19.20;;;10.75;;
22525;SDS011;11429;50.842;4.386;2024-01-15T01:12:55;21.40;;;10.20;;
22525;SDS011;11429;50.842;4.386;2024-01-15T01:15:21;18.60;;;9.98;;
22525;SDS011;11429;50.842;4.386;2024-01-15T01:17:46;17.08;;;9.88;;
22525;SDS011;11429;50.842;4.386;2024-01-15T01:20:12;17.15;;;9.50;;
22525;SDS011;11429;50.842;4.386;2024-01-15T01:22:40;17.50;;;10.15;;
22525;SDS011;11429;50.842;4.386;2024-01-15T01:25:06;15.38;;;9.77;;
22525;SDS011;11429;50.842;4.386;2024-01-15T01:27:32;18.38;;;9.45;;
22525;SDS011;11429;50.842;4.386;2024-01-15T01:29:58;14.85;;;8.23;;
22525;SDS011;11429;50.842;4.386;2024-01-15T01:32:23;16.75;;;9.02;;
22525;SDS011;11429;50.842;4.386;2024-01-15T01:34:49;14.20;;;7.90;;
22525;SDS011;11429;50.842;4.386;2024-01-15T01:37:15;13.65;;;8.38;;
22525;SDS011;11429;50.842;4.386;2024-01-15T01:39:41;14.45;;;8.23;;
22525;SDS011;11429;50.842;4.386;2024-01-15T01:42:07;13.15;;;8.30;;
22525;SDS011;11429;50.842;4.386;2024-01-15T01:44:33;14.23;;;8.30;;
22525;SDS011;11429;50.842;4.386;2024-01-15T01:46:59;11.43;;;8.35;;
22525;SDS011;11429;50.842;4.386;2024-01-15T01:49:26;13.60;;;8.10;;
22525;SDS011;11429;50.842;4.386;2024-01-15T01:51:52;13.13;;;7.38;;
22525;SDS011;11429;50.842;4.386;2024-01-15T01:54:21;13.23;;;7.82;;
22525;SDS011;11429;50.842;4.386;2024-01-15T01:56:47;13.35;;;7.88;;
22525;SDS011;11429;50.842;4.386;2024-01-15T01:59:14;10.63;;;6.55;;
22525;SDS011;11429;50.842;4.386;2024-01-15T02:01:40;11.48;;;6.82;;
22525;SDS011;11429;50.842;4.386;2024-01-15T02:04:06;14.00;;;7.82;;
22525;SDS011;11429;50.842;4.386;2024-01-15T02:06:33;8.90;;;6.28;;
22525;SDS011;11429;50.842;4.386;2024-01-15T02:08:59;8.68;;;6.10;;
22525;SDS011;11429;50.842;4.386;2024-01-15T02:11:25;10.48;;;6.43;;
22525;SDS011;11429;50.842;4.386;2024-01-15T02:13:51;10.52;;;6.20;;
22525;SDS011;11429;50.842;4.386;2024-01-15T02:16:17;9.98;;;5.88;;
22525;SDS011;11429;50.842;4.386;2024-01-15T02:18:43;9.60;;;6.35;;
22525;SDS011;11429;50.842;4.386;2024-01-15T02:21:10;7.63;;;5.88;;
22525;SDS011;11429;50.842;4.386;2024-01-15T02:23:37;8.15;;;5.05;;
22525;SDS011;11429;50.842;4.386;2024-01-15T02:26:03;7.55;;;5.00;;
22525;SDS011;11429;50.842;4.386;2024-01-15T02:28:30;8.98;;;5.32;;
22525;SDS011;11429;50.842;4.386;2024-01-15T02:30:56;10.07;;;4.88;;
22525;SDS011;11429;50.842;4.386;2024-01-15T02:33:22;9.20;;;5.55;;
22525;SDS011;11429;50.842;4.386;2024-01-15T02:35:47;8.68;;;4.90;;
22525;SDS011;11429;50.842;4.386;2024-01-15T02:38:15;10.88;;;4.70;;
22525;SDS011;11429;50.842;4.386;2024-01-15T02:40:41;10.90;;;5.05;;
22525;SDS011;11429;50.842;4.386;2024-01-15T02:43:08;9.57;;;5.15;;
22525;SDS011;11429;50.842;4.386;2024-01-15T02:45:34;6.30;;;5.07;;
22525;SDS011;11429;50.842;4.386;2024-01-15T02:47:59;10.77;;;5.20;;
22525;SDS011;11429;50.842;4.386;2024-01-15T02:50:25;11.82;;;5.82;;
22525;SDS011;11429;50.842;4.386;2024-01-15T02:52:51;9.98;;;5.90;;
22525;SDS011;11429;50.842;4.386;2024-01-15T02:55:17;8.68;;;6.60;;
22525;SDS011;11429;50.842;4.386;2024-01-15T02:57:43;11.55;;;7.00;;
22525;SDS011;11429;50.842;4.386;2024-01-15T03:00:09;13.05;;;7.82;;
22525;SDS011;11429;50.842;4.386;2024-01-15T03:02:36;13.00;;;7.65;;
22525;SDS011;11429;50.842;4.386;2024-01-15T03:05:04;17.27;;;8.30;;
22525;SDS011;11429;50.842;4.386;2024-01-15T03:07:31;15.20;;;9.75;;
22525;SDS011;11429;50.842;4.386;2024-01-15T03:09:57;15.15;;;10.30;;
22525;SDS011;11429;50.842;4.386;2024-01-15T03:12:22;16.08;;;9.57;;
22525;SDS011;11429;50.842;4.386;2024-01-15T03:14:48;16.60;;;10.43;;
22525;SDS011;11429;50.842;4.386;2024-01-15T03:17:14;18.08;;;10.68;;
22525;SDS011;11429;50.842;4.386;2024-01-15T03:19:39;21.80;;;11.73;;
22525;SDS011;11429;50.842;4.386;2024-01-15T03:22:05;18.15;;;11.07;;
22525;SDS011;11429;50.842;4.386;2024-01-15T03:24:33;19.35;;;11.82;;
22525;SDS011;11429;50.842;4.386;2024-01-15T03:26:59;19.75;;;11.52;;
22525;SDS011;11429;50.842;4.386;2024-01-15T03:29:25;20.20;;;11.30;;
22525;SDS011;11429;50.842;4.386;2024-01-15T03:31:51;21.77;;;11.75;;
22525;SDS011;11429;50.842;4.386;2024-01-15T03:34:17;20.67;;;12.13;;
22525;SDS011;11429;50.842;4.386;2024-01-15T03:36:43;19.00;;;11.23;;
22525;SDS011;11429;50.842;4.386;2024-01-15T03:39:08;19.38;;;11.20;;
22525;SDS011;11429;50.842;4.386;2024-01-15T03:41:34;21.45;;;12.35;;
22525;SDS011;11429;50.842;4.386;2024-01-15T03:44:00;19.92;;;11.65;;
22525;SDS011;11429;50.842;4.386;2024-01-15T03:46:26;23.48;;;12.55;;
22525;SDS011;11429;50.842;4.386;2024-01-15T03:48:52;25.95;;;13.88;;
22525;SDS011;11429;50.842;4.386;2024-01-15T03:51:17;23.17;;;13.32;;
22525;SDS011;11429;50.842;4.386;2024-01-15T03:53:43;25.52;;;14.80;;
22525;SDS011;11429;50.842;4.386;2024-01-15T03:56:09;21.75;;;12.80;;
22525;SDS011;11429;50.842;4.386;2024-01-15T03:58:35;25.65;;;14.45;;
22525;SDS011;11429;50.842;4.386;2024-01-15T04:01:01;24.73;;;13.73;;
22525;SDS011;11429;50.842;4.386;2024-01-15T04:03:26;26.35;;;14.32;;
22525;SDS011;11429;50.842;4.386;2024-01-15T04:05:52;23.95;;;14.02;;
22525;SDS011;11429;50.842;4.386;2024-01-15T04:08:17;26.05;;;14.07;;
22525;SDS011;11429;50.842;4.386;2024-01-15T04:10:43;28.73;;;14.80;;
22525;SDS011;11429;50.842;4.386;2024-01-15T04:13:09;26.77;;;15.50;;
22525;SDS011;11429;50.842;4.386;2024-01-15T04:15:35;26.45;;;14.73;;
22525;SDS011;11429;50.842;4.386;2024-01-15T04:18:01;26.55;;;14.73;;
22525;SDS011;11429;50.842;4.386;2024-01-15T04:20:27;26.15;;;14.48;;
22525;SDS011;11429;50.842;4.386;2024-01-15T04:22:53;28.73;;;15.27;;
22525;SDS011;11429;50.842;4.386;2024-01-15T04:25:19;23.95;;;15.43;;
22525;SDS011;11429;50.842;4.386;2024-01-15T04:27:44;24.95;;;14.63;;
22525;SDS011;11429;50.842;4.386;2024-01-15T04:30:10;25.60;;;14.70;;
22525;SDS011;11429;50.842;4.386;2024-01-15T04:32:36;24.73;;;14.48;;
22525;SDS011;11429;50.842;4.386;2024-01-15T04:35:02;24.73;;;13.93;;
22525;SDS011;11429;50.842;4.386;2024-01-15T04:37:28;23.85;;;14.45;;
22525;SDS011;11429;50.842;4.386;2024-01-15T04:39:53;25.38;;;14.35;;
22525;SDS011;11429;50.842;4.386;2024-01-15T04:42:20;29.30;;;15.02;;
22525;SDS011;11429;50.842;4.386;2024-01-15T04:44:46;23.98;;;14.23;;
22525;SDS011;11429;50.842;4.386;2024-01-15T04:47:12;26.00;;;14.05;;
22525;SDS011;11429;50.842;4.386;2024-01-15T04:49:38;25.23;;;14.35;;
22525;SDS011;11429;50.842;4.386;2024-01-15T04:52:03;21.15;;;12.85;;
22525;SDS011;11429;50.842;4.386;2024-01-15T04:54:29;24.65;;;13.60;;
22525;SDS011;11429;50.842;4.386;2024-01-15T04:56:55;22.98;;;12.32;;
22525;SDS011;11429;50.842;4.386;2024-01-15T04:59:21;19.33;;;11.80;;
22525;SDS011;11429;50.842;4.386;2024-01-15T05:01:46;22.58;;;11.55;;
22525;SDS011;11429;50.842;4.386;2024-01-15T05:04:13;23.98;;;11.98;;
22525;SDS011;11429;50.842;4.386;2024-01-15T05:06:39;22.67;;;11.93;;
22525;SDS011;11429;50.842;4.386;2024-01-15T05:09:05;20.02;;;11.10;;
22525;SDS011;11429;50.842;4.386;2024-01-15T05:11:31;17.00;;;10.15;;
22525;SDS011;11429;50.842;4.386;2024-01-15T05:13:56;16.35;;;9.38;;
22525;SDS011;11429;50.842;4.386;2024-01-15T05:16:22;19.63;;;9.02;;
22525;SDS011;11429;50.842;4.386;2024-01-15T05:18:47;11.63;;;7.15;;
22525;SDS011;11429;50.842;4.386;2024-01-15T05:21:13;11.88;;;5.75;;
22525;SDS011;11429;50.842;4.386;2024-01-15T05:23:39;8.80;;;5.60;;
22525;SDS011;11429;50.842;4.386;2024-01-15T05:26:04;9.27;;;5.20;;
22525;SDS011;11429;50.842;4.386;2024-01-15T05:28:30;10.50;;;4.63;;
22525;SDS011;11429;50.842;4.386;2024-01-15T05:30:56;8.63;;;4.25;;
22525;SDS011;11429;50.842;4.386;2024-01-15T05:33:22;8.77;;;4.25;;
22525;SDS011;11429;50.842;4.386;2024-01-15T05:35:48;6.03;;;3.90;;
22525;SDS011;11429;50.842;4.386;2024-01-15T05:38:15;8.23;;;4.43;;
22525;SDS011;11429;50.842;4.386;2024-01-15T05:40:41;7.78;;;3.53;;
22525;SDS011;11429;50.842;4.386;2024-01-15T05:43:07;9.15;;;3.88;;
22525;SDS011;11429;50.842;4.386;2024-01-15T05:45:33;8.43;;;3.90;;
22525;SDS011;11429;50.842;4.386;2024-01-15T05:48:03;7.95;;;3.42;;
22525;SDS011;11429;50.842;4.386;2024-01-15T05:50:29;4.63;;;2.95;;
22525;SDS011;11429;50.842;4.386;2024-01-15T05:52:54;5.47;;;3.08;;
22525;SDS011;11429;50.842;4.386;2024-01-15T05:55:20;11.75;;;3.92;;
22525;SDS011;11429;50.842;4.386;2024-01-15T05:57:46;5.82;;;3.20;;
22525;SDS011;11429;50.842;4.386;2024-01-15T06:00:12;6.70;;;2.97;;
22525;SDS011;11429;50.842;4.386;2024-01-15T06:02:38;4.82;;;2.60;;
22525;SDS011;11429;50.842;4.386;2024-01-15T06:05:04;4.53;;;2.58;;
22525;SDS011;11429;50.842;4.386;2024-01-15T06:07:31;6.80;;;2.45;;
22525;SDS011;11429;50.842;4.386;2024-01-15T06:09:58;4.80;;;2.33;;
22525;SDS011;11429;50.842;4.386;2024-01-15T06:12:24;4.93;;;2.10;;
22525;SDS011;11429;50.842;4.386;2024-01-15T06:14:50;8.65;;;2.20;;
22525;SDS011;11429;50.842;4.386;2024-01-15T06:17:15;6.63;;;2.15;;
22525;SDS011;11429;50.842;4.386;2024-01-15T06:19:41;5.20;;;1.98;;
22525;SDS011;11429;50.842;4.386;2024-01-15T06:22:07;3.35;;;1.60;;
22525;SDS011;11429;50.842;4.386;2024-01-15T06:24:32;4.43;;;1.52;;
22525;SDS011;11429;50.842;4.386;2024-01-15T06:26:58;6.43;;;1.50;;
22525;SDS011;11429;50.842;4.386;2024-01-15T06:29:25;6.45;;;2.22;;
22525;SDS011;11429;50.842;4.386;2024-01-15T06:31:52;6.00;;;1.98;;
22525;SDS011;11429;50.842;4.386;2024-01-15T06:34:18;5.20;;;2.17;;
22525;SDS011;11429;50.842;4.386;2024-01-15T06:36:44;5.13;;;2.60;;
22525;SDS011;11429;50.842;4.386;2024-01-15T06:39:09;8.55;;;2.67;;
22525;SDS011;11429;50.842;4.386;2024-01-15T06:41:35;6.03;;;2.65;;
22525;SDS011;11429;50.842;4.386;2024-01-15T06:44:08;4.03;;;2.53;;
22525;SDS011;11429;50.842;4.386;2024-01-15T06:46:35;7.90;;;3.05;;
22525;SDS011;11429;50.842;4.386;2024-01-15T06:49:01;7.20;;;2.90;;
22525;SDS011;11429;50.842;4.386;2024-01-15T06:51:27;7.18;;;2.83;;
22525;SDS011;11429;50.842;4.386;2024-01-15T06:53:54;9.18;;;3.65;;
22525;SDS011;11429;50.842;4.386;2024-01-15T06:56:19;7.38;;;4.00;;
22525;SDS011;11429;50.842;4.386;2024-01-15T06:58:45;14.43;;;4.35;;
22525;SDS011;11429;50.842;4.386;2024-01-15T07:01:11;9.65;;;5.43;;
22525;SDS011;11429;50.842;4.386;2024-01-15T07:03:37;10.60;;;4.60;;
22525;SDS011;11429;50.842;4.386;2024-01-15T07:06:03;9.80;;;4.80;;
22525;SDS011;11429;50.842;4.386;2024-01-15T07:08:29;9.10;;;4.95;;
22525;SDS011;11429;50.842;4.386;2024-01-15T07:10:55;10.65;;;4.97;;
22525;SDS011;11429;50.842;4.386;2024-01-15T07:13:20;7.43;;;5.18;;
22525;SDS011;11429;50.842;4.386;2024-01-15T07:15:46;6.93;;;4.80;;
22525;SDS011;11429;50.842;4.386;2024-01-15T07:18:12;9.80;;;5.68;;
22525;SDS011;11429;50.842;4.386;2024-01-15T07:20:38;9.05;;;4.45;;
22525;SDS011;11429;50.842;4.386;2024-01-15T07:23:03;8.88;;;4.90;;
22525;SDS011;11429;50.842;4.386;2024-01-15T07:25:29;8.57;;;4.50;;
22525;SDS011;11429;50.842;4.386;2024-01-15T07:27:55;5.53;;;4.47;;
22525;SDS011;11429;50.842;4.386;2024-01-15T07:30:20;8.63;;;4.78;;
22525;SDS011;11429;50.842;4.386;2024-01-15T07:32:47;8.77;;;4.78;;
22525;SDS011;11429;50.842;4.386;2024-01-15T07:35:14;6.85;;;5.07;;
22525;SDS011;11429;50.842;4.386;2024-01-15T07:37:40;11.25;;;9.70;;
22525;SDS011;11429;50.842;4.386;2024-01-15T07:40:06;7.45;;;4.90;;
22525;SDS011;11429;50.842;4.386;2024-01-15T07:42:33;10.40;;;5.55;;
22525;SDS011;11429;50.842;4.386;2024-01-15T07:45:00;7.55;;;5.60;;
22525;SDS011;11429;50.842;4.386;2024-01-15T07:47:26;11.02;;;6.38;;
22525;SDS011;11429;50.842;4.386;2024-01-15T07:49:52;12.85;;;7.18;;
22525;SDS011;11429;50.842;4.386;2024-01-15T07:52:18;9.00;;;7.07;;
22525;SDS011;11429;50.842;4.386;2024-01-15T07:54:45;12.65;;;6.90;;
22525;SDS011;11429;50.842;4.386;2024-01-15T07:57:10;11.40;;;6.90;;
22525;SDS011;11429;50.842;4.386;2024-01-15T07:59:36;11.25;;;7.53;;
22525;SDS011;11429;50.842;4.386;2024-01-15T08:02:02;11.32;;;7.30;;
22525;SDS011;11429;50.842;4.386;2024-01-15T08:04:28;13.50;;;6.80;;
22525;SDS011;11429;50.842;4.386;2024-01-15T08:06:54;11.60;;;7.43;;
22525;SDS011;11429;50.842;4.386;2024-01-15T08:09:22;11.75;;;6.63;;
22525;SDS011;11429;50.842;4.386;2024-01-15T08:11:47;9.77;;;6.47;;
22525;SDS011;11429;50.842;4.386;2024-01-15T08:14:14;12.52;;;6.40;;
22525;SDS011;11429;50.842;4.386;2024-01-15T08:16:40;12.35;;;6.65;;
22525;SDS011;11429;50.842;4.386;2024-01-15T08:19:06;15.27;;;7.90;;
22525;SDS011;11429;50.842;4.386;2024-01-15T08:21:32;9.13;;;6.47;;
22525;SDS011;11429;50.842;4.386;2024-01-15T08:23:59;11.57;;;5.55;;
22525;SDS011;11429;50.842;4.386;2024-01-15T08:26:25;11.68;;;6.10;;
22525;SDS011;11429;50.842;4.386;2024-01-15T08:28:51;11.13;;;6.35;;
22525;SDS011;11429;50.842;4.386;2024-01-15T08:31:17;9.75;;;5.63;;
22525;SDS011;11429;50.842;4.386;2024-01-15T08:33:43;10.65;;;5.38;;
22525;SDS011;11429;50.842;4.386;2024-01-15T08:36:11;9.27;;;4.25;;
22525;SDS011;11429;50.842;4.386;2024-01-15T08:38:37;12.30;;;5.20;;
22525;SDS011;11429;50.842;4.386;2024-01-15T08:41:03;9.20;;;3.72;;
22525;SDS011;11429;50.842;4.386;2024-01-15T08:43:29;9.52;;;3.85;;
22525;SDS011;11429;50.842;4.386;2024-01-15T08:45:58;9.95;;;3.67;;
22525;SDS011;11429;50.842;4.386;2024-01-15T08:48:24;8.57;;;3.83;;
22525;SDS011;11429;50.842;4.386;2024-01-15T08:50:52;9.35;;;4.00;;
22525;SDS011;11429;50.842;4.386;2024-01-15T08:53:18;10.35;;;3.25;;
22525;SDS011;11429;50.842;4.386;2024-01-15T08:55:44;7.72;;;3.10;;
22525;SDS011;11429;50.842;4.386;2024-01-15T08:58:10;10.40;;;2.83;;
22525;SDS011;11429;50.842;4.386;2024-01-15T09:00:35;7.85;;;2.50;;
22525;SDS011;11429;50.842;4.386;2024-01-15T09:03:01;7.28;;;2.53;;
22525;SDS011;11429;50.842;4.386;2024-01-15T09:05:28;7.95;;;2.75;;
22525;SDS011;11429;50.842;4.386;2024-01-15T09:07:54;12.77;;;2.67;;
22525;SDS011;11429;50.842;4.386;2024-01-15T09:10:20;8.43;;;2.58;;
22525;SDS011;11429;50.842;4.386;2024-01-15T09:12:46;5.93;;;2.40;;
22525;SDS011;11429;50.842;4.386;2024-01-15T09:15:11;8.23;;;2.30;;
22525;SDS011;11429;50.842;4.386;2024-01-15T09:17:37;6.78;;;2.45;;
22525;SDS011;11429;50.842;4.386;2024-01-15T09:20:04;6.05;;;2.33;;
22525;SDS011;11429;50.842;4.386;2024-01-15T09:22:30;7.55;;;2.25;;
22525;SDS011;11429;50.842;4.386;2024-01-15T09:24:56;7.82;;;2.50;;
22525;SDS011;11429;50.842;4.386;2024-01-15T09:27:23;10.07;;;3.47;;
22525;SDS011;11429;50.842;4.386;2024-01-15T09:29:51;9.48;;;3.03;;
22525;SDS011;11429;50.842;4.386;2024-01-15T09:32:17;9.50;;;2.53;;
22525;SDS011;11429;50.842;4.386;2024-01-15T09:34:43;7.40;;;2.65;;
22525;SDS011;11429;50.842;4.386;2024-01-15T09:37:10;7.18;;;2.35;;
22525;SDS011;11429;50.842;4.386;2024-01-15T09:39:35;6.82;;;2.40;;
22525;SDS011;11429;50.842;4.386;2024-01-15T09:42:01;9.70;;;2.20;;
22525;SDS011;11429;50.842;4.386;2024-01-15T09:44:28;7.85;;;2.28;;
22525;SDS011;11429;50.842;4.386;2024-01-15T09:46:55;6.30;;;2.08;;
22525;SDS011;11429;50.842;4.386;2024-01-15T09:49:21;8.25;;;1.92;;
22525;SDS011;11429;50.842;4.386;2024-01-15T09:51:47;11.32;;;2.08;;
22525;SDS011;11429;50.842;4.386;2024-01-15T09:54:13;11.07;;;2.28;;
22525;SDS011;11429;50.842;4.386;2024-01-15T09:56:42;8.05;;;2.20;;
22525;SDS011;11429;50.842;4.386;2024-01-15T09:59:17;8.55;;;2.35;;
22525;SDS011;11429;50.842;4.386;2024-01-15T10:01:43;6.43;;;2.22;;
22525;SDS011;11429;50.842;4.386;2024-01-15T10:04:13;8.95;;;2.33;;
22525;SDS011;11429;50.842;4.386;2024-01-15T10:06:40;9.38;;;2.00;;
22525;SDS011;11429;50.842;4.386;2024-01-15T10:09:13;6.95;;;2.30;;
22525;SDS011;11429;50.842;4.386;2024-01-15T10:11:42;7.05;;;2.30;;
22525;SDS011;11429;50.842;4.386;2024-01-15T10:14:09;8.10;;;2.47;;
22525;SDS011;11429;50.842;4.386;2024-01-15T10:16:38;9.52;;;2.42;;
22525;SDS011;11429;50.842;4.386;2024-01-15T10:19:04;7.47;;;2.13;;
22525;SDS011;11429;50.842;4.386;2024-01-15T10:21:31;7.88;;;2.25;;
22525;SDS011;11429;50.842;4.386;2024-01-15T10:24:00;8.27;;;2.42;;
22525;SDS011;11429;50.842;4.386;2024-01-15T10:26:26;10.00;;;3.63;;
22525;SDS011;11429;50.842;4.386;2024-01-15T10:28:51;7.10;;;2.08;;
22525;SDS011;11429;50.842;4.386;2024-01-15T10:31:17;9.10;;;2.10;;
22525;SDS011;11429;50.842;4.386;2024-01-15T10:33:44;6.03;;;2.15;;
22525;SDS011;11429;50.842;4.386;2024-01-15T10:36:10;8.95;;;3.22;;
22525;SDS011;11429;50.842;4.386;2024-01-15T10:38:36;8.38;;;2.17;;
22525;SDS011;11429;50.842;4.386;2024-01-15T10:41:02;8.40;;;2.50;;
22525;SDS011;11429;50.842;4.386;2024-01-15T10:43:29;11.82;;;2.60;;
22525;SDS011;11429;50.842;4.386;2024-01-15T10:45:55;6.03;;;2.28;;
22525;SDS011;11429;50.842;4.386;2024-01-15T10:48:20;9.50;;;2.38;;
22525;SDS011;11429;50.842;4.386;2024-01-15T10:50:47;9.88;;;2.88;;
22525;SDS011;11429;50.842;4.386;2024-01-15T10:53:14;6.65;;;2.55;;
22525;SDS011;11429;50.842;4.386;2024-01-15T10:55:41;7.45;;;2.33;;
22525;SDS011;11429;50.842;4.386;2024-01-15T10:58:07;8.68;;;2.20;;
22525;SDS011;11429;50.842;4.386;2024-01-15T11:00:37;9.98;;;2.35;;
22525;SDS011;11429;50.842;4.386;2024-01-15T11:03:04;5.68;;;1.92;;
22525;SDS011;11429;50.842;4.386;2024-01-15T11:05:37;11.05;;;5.50;;
22525;SDS011;11429;50.842;4.386;2024-01-15T11:08:07;10.50;;;2.85;;
22525;SDS011;11429;50.842;4.386;2024-01-15T11:13:09;8.48;;;2.50;;
22525;SDS011;11429;50.842;4.386;2024-01-15T11:18:30;7.90;;;2.13;;
22525;SDS011;11429;50.842;4.386;2024-01-15T11:29:04;7.55;;;2.10;;
22525;SDS011;11429;50.842;4.386;2024-01-15T11:34:04;6.97;;;1.65;;
22525;SDS011;11429;50.842;4.386;2024-01-15T11:41:56;7.32;;;2.70;;
22525;SDS011;11429;50.842;4.386;2024-01-15T11:44:23;6.53;;;1.67;;
22525;SDS011;11429;50.842;4.386;2024-01-15T11:46:57;5.28;;;1.67;;
22525;SDS011;11429;50.842;4.386;2024-01-15T11:52:20;4.30;;;1.73;;
22525;SDS011;11429;50.842;4.386;2024-01-15T11:54:55;5.32;;;1.80;;
22525;SDS011;11429;50.842;4.386;2024-01-15T12:00:11;6.80;;;2.10;;
22525;SDS011;11429;50.842;4.386;2024-01-15T12:02:44;7.38;;;1.77;;
22525;SDS011;11429;50.842;4.386;2024-01-15T12:05:12;3.78;;;1.80;;
22525;SDS011;11429;50.842;4.386;2024-01-15T12:07:42;6.38;;;1.95;;
22525;SDS011;11429;50.842;4.386;2024-01-15T12:10:09;6.43;;;1.55;;
22525;SDS011;11429;50.842;4.386;2024-01-15T12:15:07;7.05;;;1.50;;
22525;SDS011;11429;50.842;4.386;2024-01-15T12:17:33;6.55;;;2.10;;
22525;SDS011;11429;50.842;4.386;2024-01-15T12:20:00;7.70;;;2.30;;
22525;SDS011;11429;50.842;4.386;2024-01-15T12:22:26;7.15;;;1.90;;
22525;SDS011;11429;50.842;4.386;2024-01-15T12:24:53;6.45;;;1.58;;
22525;SDS011;11429;50.842;4.386;2024-01-15T12:27:19;7.63;;;1.95;;
22525;SDS011;11429;50.842;4.386;2024-01-15T12:29:45;10.90;;;2.40;;
22525;SDS011;11429;50.842;4.386;2024-01-15T12:32:12;3.47;;;1.60;;
22525;SDS011;11429;50.842;4.386;2024-01-15T12:34:37;7.55;;;1.95;;
22525;SDS011;11429;50.842;4.386;2024-01-15T12:37:03;5.13;;;1.70;;
22525;SDS011;11429;50.842;4.386;2024-01-15T12:39:29;10.15;;;2.55;;
22525;SDS011;11429;50.842;4.386;2024-01-15T12:41:55;7.97;;;1.90;;
22525;SDS011;11429;50.842;4.386;2024-01-15T12:44:20;6.25;;;1.90;;
22525;SDS011;11429;50.842;4.386;2024-01-15T12:46:46;4.22;;;1.48;;
22525;SDS011;11429;50.842;4.386;2024-01-15T12:49:13;7.95;;;1.90;;
22525;SDS011;11429;50.842;4.386;2024-01-15T12:51:39;5.88;;;1.67;;
22525;SDS011;11429;50.842;4.386;2024-01-15T12:54:05;5.72;;;1.70;;
22525;SDS011;11429;50.842;4.386;2024-01-15T12:56:30;6.35;;;1.70;;
22525;SDS011;11429;50.842;4.386;2024-01-15T12:58:56;5.35;;;1.88;;
22525;SDS011;11429;50.842;4.386;2024-01-15T13:01:22;6.90;;;2.45;;
22525;SDS011;11429;50.842;4.386;2024-01-15T13:03:47;6.05;;;1.95;;
22525;SDS011;11429;50.842;4.386;2024-01-15T13:06:13;8.75;;;3.70;;
22525;SDS011;11429;50.842;4.386;2024-01-15T13:08:39;9.55;;;1.92;;
22525;SDS011;11429;50.842;4.386;2024-01-15T13:11:04;7.88;;;2.05;;
22525;SDS011;11429;50.842;4.386;2024-01-15T13:13:30;8.77;;;1.50;;
22525;SDS011;11429;50.842;4.386;2024-01-15T13:15:59;8.45;;;2.13;;
22525;SDS011;11429;50.842;4.386;2024-01-15T13:18:25;6.13;;;1.45;;
22525;SDS011;11429;50.842;4.386;2024-01-15T13:20:51;12.45;;;2.22;;
22525;SDS011;11429;50.842;4.386;2024-01-15T13:23:16;6.05;;;1.92;;
22525;SDS011;11429;50.842;4.386;2024-01-15T13:25:42;12.60;;;2.50;;
22525;SDS011;11429;50.842;4.386;2024-01-15T13:28:08;4.43;;;1.73;;
22525;SDS011;11429;50.842;4.386;2024-01-15T13:30:33;6.30;;;1.88;;
22525;SDS011;11429;50.842;4.386;2024-01-15T13:32:59;9.98;;;1.83;;
22525;SDS011;11429;50.842;4.386;2024-01-15T13:35:29;7.25;;;2.15;;
22525;SDS011;11429;50.842;4.386;2024-01-15T13:37:55;7.00;;;2.40;;
22525;SDS011;11429;50.842;4.386;2024-01-15T13:40:21;8.20;;;1.95;;
22525;SDS011;11429;50.842;4.386;2024-01-15T13:42:47;10.15;;;1.80;;
22525;SDS011;11429;50.842;4.386;2024-01-15T13:45:13;13.80;;;2.30;;
22525;SDS011;11429;50.842;4.386;2024-01-15T13:47:39;13.55;;;2.45;;
22525;SDS011;11429;50.842;4.386;2024-01-15T13:50:07;6.43;;;2.40;;
22525;SDS011;11429;50.842;4.386;2024-01-15T13:52:33;9.30;;;2.10;;
22525;SDS011;11429;50.842;4.386;2024-01-15T13:54:59;7.22;;;2.28;;
22525;SDS011;11429;50.842;4.386;2024-01-15T13:57:25;10.35;;;2.38;;
22525;SDS011;11429;50.842;4.386;2024-01-15T13:59:50;8.10;;;2.88;;
22525;SDS011;11429;50.842;4.386;2024-01-15T14:02:16;7.85;;;2.55;;
22525;SDS011;11429;50.842;4.386;2024-01-15T14:04:42;6.82;;;1.80;;
22525;SDS011;11429;50.842;4.386;2024-01-15T14:07:08;6.85;;;2.17;;
22525;SDS011;11429;50.842;4.386;2024-01-15T14:09:34;10.43;;;2.45;;
22525;SDS011;11429;50.842;4.386;2024-01-15T14:11:59;7.00;;;1.75;;
22525;SDS011;11429;50.842;4.386;2024-01-15T14:14:25;15.30;;;2.30;;
22525;SDS011;11429;50.842;4.386;2024-01-15T14:16:51;8.40;;;2.00;;
22525;SDS011;11429;50.842;4.386;2024-01-15T14:19:16;8.88;;;2.17;;
22525;SDS011;11429;50.842;4.386;2024-01-15T14:21:43;6.53;;;1.42;;
22525;SDS011;11429;50.842;4.386;2024-01-15T14:24:08;7.50;;;2.38;;
22525;SDS011;11429;50.842;4.386;2024-01-15T14:26:34;6.85;;;2.05;;
22525;SDS011;11429;50.842;4.386;2024-01-15T14:29:00;11.52;;;2.20;;
22525;SDS011;11429;50.842;4.386;2024-01-15T14:31:25;8.55;;;2.00;;
22525;SDS011;11429;50.842;4.386;2024-01-15T14:33:53;6.60;;;1.77;;
22525;SDS011;11429;50.842;4.386;2024-01-15T14:36:20;9.43;;;2.00;;
22525;SDS011;11429;50.842;4.386;2024-01-15T14:38:45;10.50;;;2.03;;
22525;SDS011;11429;50.842;4.386;2024-01-15T14:41:11;8.68;;;2.42;;
22525;SDS011;11429;50.842;4.386;2024-01-15T14:43:38;6.57;;;1.80;;
22525;SDS011;11429;50.842;4.386;2024-01-15T14:46:03;8.82;;;2.10;;
22525;SDS011;11429;50.842;4.386;2024-01-15T14:48:29;3.90;;;1.30;;
22525;SDS011;11429;50.842;4.386;2024-01-15T14:50:55;8.10;;;1.77;;
22525;SDS011;11429;50.842;4.386;2024-01-15T14:53:23;7.30;;;1.92;;
22525;SDS011;11429;50.842;4.386;2024-01-15T14:55:49;4.70;;;1.73;;
22525;SDS011;11429;50.842;4.386;2024-01-15T14:58:15;9.38;;;2.03;;
22525;SDS011;11429;50.842;4.386;2024-01-15T15:00:40;6.20;;;2.38;;
22525;SDS011;11429;50.842;4.386;2024-01-15T15:03:06;4.90;;;1.65;;